Time,TemperatureF,DewpointF,PressureIn,WindDirection,WindDirectionDegrees,WindSpeedMPH,WindSpeedGustMPH,Humidity,HourlyPrecipIn,Conditions,Clouds,dailyrainin,SoftwareType,DateUTC
2014-12-20 02:21:00,25.0,25.0,-100.00,South,183,3.0,4.0,100,-99.99,,,-99.99,,2014-12-20 09:21:00,
2014-12-20 02:53:00,25.0,25.0,-100.00,East,89,2.0,2.0,100,-99.99,,,-99.99,,2014-12-20 09:53:00,
2014-12-20 03:23:00,25.0,25.0,-100.00,SE,126,0.0,1.0,100,-99.99,,,-99.99,,2014-12-20 10:23:00,
2014-12-20 03:53:00,26.0,26.0,-100.00,NW,309,0.0,2.0,100,-99.99,,,-99.99,,2014-12-20 10:53:00,
2014-12-20 04:22:00,25.0,25.0,-100.00,North,8,0.0,4.0,100,-99.99,,,-99.99,,2014-12-20 11:22:00,
2014-12-20 04:52:00,25.0,25.0,-100.00,West,279,3.0,5.0,100,-99.99,,,-99.99,,2014-12-20 11:52:00,
2014-12-20 05:22:00,25.0,25.0,-100.00,NW,304,3.0,6.0,100,-99.99,,,-99.99,,2014-12-20 12:22:00,
2014-12-20 05:52:00,24.0,24.0,-100.00,NNW,332,1.0,5.0,100,-99.99,,,-99.99,,2014-12-20 12:52:00,
2014-12-20 06:21:00,24.0,24.0,-100.00,WNW,284,4.0,5.0,100,-99.99,,,-99.99,,2014-12-20 13:21:00,
2014-12-20 06:52:00,25.0,25.0,-100.00,SE,142,1.0,3.0,100,-99.99,,,-99.99,,2014-12-20 13:52:00,
2014-12-20 07:22:00,24.0,24.0,-100.00,SE,136,3.0,4.0,100,-99.99,,,-99.99,,2014-12-20 14:22:00,
2014-12-20 07:52:00,24.0,24.0,-100.00,SSE,159,3.0,5.0,100,-99.99,,,-99.99,,2014-12-20 14:52:00,
2014-12-20 08:22:00,25.0,25.0,-100.00,SSE,158,2.0,5.0,100,-99.99,,,-99.99,,2014-12-20 15:22:00,
2014-12-20 09:00:00,25.0,25.0,-100.00,SSW,206,4.0,6.0,100,-99.99,,,-99.99,,2014-12-20 16:00:00,
2014-12-20 09:30:00,-999.0,-99.9,-100.00,SW,215,4.0,5.0,100,-99.99,,,-99.99,,2014-12-20 16:30:00,
2014-12-20 09:50:00,-999.0,-99.9,-100.00,SSE,161,2.0,5.0,100,-99.99,,,-99.99,,2014-12-20 16:50:00,
2014-12-20 10:00:00,-999.0,-99.9,-100.00,South,171,4.0,6.0,100,-99.99,,,-99.99,,2014-12-20 17:00:00,
2014-12-20 10:10:00,-999.0,-99.9,-100.00,SSE,148,2.0,5.0,-999,-99.99,,,-99.99,,2014-12-20 17:10:00,
2014-12-20 10:20:00,-999.0,-99.9,-100.00,SSW,211,1.0,5.0,100,-99.99,,,-99.99,,2014-12-20 17:20:00,
2014-12-20 10:30:00,25.0,25.0,-100.00,South,169,1.0,4.0,100,-99.99,,,-99.99,,2014-12-20 17:30:00,
2014-12-20 10:53:00,25.0,25.0,-100.00,SSW,193,2.0,4.0,100,-99.99,,,-99.99,,2014-12-20 17:53:00,
2014-12-20 11:23:00,25.0,25.0,-100.00,South,178,2.0,5.0,100,-99.99,,,-99.99,,2014-12-20 18:23:00,